Terminal Aerodrome Forecast
Issued by NWS

Current Version | Previous Version | Graphics & Text | Print | Product List | Glossary On
Versions: 1 2 3 4 5 6 7 8 9 10 11 12 13 14 15 16 17 18 19 20 21 22 23 24
000
FTUS41 KRLX 011120
TAFCKB
TAF
KCKB 011120Z 0112/0212 33005KT 5SM BR OVC004
     FM011400 36003KT P6SM OVC012
     FM012100 02004KT 5SM -SHRA BR OVC015
     FM020500 02004KT 2SM BR OVC008=

USA.gov is the U.S. government's official web portal to all federal, state and local government web resources and services.